Lakeport, Texas
Current Conditions -  °F | °C
As of 4:53 PM on Saturday 25 Oct 2014 (Local Time) from KGGG Reporting Station
Clear Clear  
Wind Chill: 84°   Ceiling: Unl
Heat Index: 85°   Visibility: 10mi
Dew Point: 63°   Wind: 6mph
Humidity: 49%   Direction: 270°W
Pressure: 30.07"   Gusts: NA
Location:  32.4096°N, 94.7122°W
Report Text: KGGG 252153Z 27005KT 10SM CLR 29/17 A3007 RMK AO2 SLP178 T02890172
Loading
Personal Weather Stations






























Interactive Weather Map
Tropical Storm Tracking
New forecast layout! Learn more

10-Day Weather Forecast

Advertisements
Track Severe Weather on mobile